createdAt,value
2023-01-17T00:01:29.341Z,12.10
2023-01-17T00:04:15.195Z,11.40
2023-01-17T00:07:00.988Z,11.30
2023-01-17T00:09:46.867Z,12.00
2023-01-17T00:12:13.808Z,11.70
2023-01-17T00:14:40.771Z,12.60
2023-01-17T00:17:07.823Z,11.80
2023-01-17T00:19:53.595Z,11.00
2023-01-17T00:22:42.147Z,12.10
2023-01-17T00:25:32.523Z,12.30
2023-01-17T00:27:59.369Z,13.00
2023-01-17T00:30:26.316Z,13.40
2023-01-17T00:32:53.268Z,12.50
2023-01-17T00:35:20.730Z,13.70
2023-01-17T00:37:47.550Z,12.90
2023-01-17T00:40:14.428Z,13.60
2023-01-17T00:42:41.278Z,12.90
2023-01-17T00:45:27.448Z,12.90
2023-01-17T00:48:13.358Z,11.70
2023-01-17T00:50:59.131Z,13.70
2023-01-17T00:53:44.811Z,12.80
2023-01-17T00:56:30.428Z,12.90
2023-01-17T00:59:16.067Z,12.50
2023-01-17T01:02:01.960Z,12.80
2023-01-17T01:04:47.723Z,12.30
2023-01-17T01:07:33.401Z,13.50
2023-01-17T01:10:18.984Z,13.40
2023-01-17T01:13:04.756Z,11.70
2023-01-17T01:15:50.522Z,13.20
2023-01-17T01:18:36.050Z,13.50
2023-01-17T01:21:22.183Z,12.60
2023-01-17T01:24:08.084Z,13.60
2023-01-17T01:26:53.862Z,12.40
2023-01-17T01:29:39.577Z,12.80
2023-01-17T01:32:25.115Z,12.30
2023-01-17T01:34:52.068Z,11.40
2023-01-17T01:37:18.908Z,12.60
2023-01-17T01:39:45.774Z,12.60
2023-01-17T01:42:15.469Z,11.90
2023-01-17T01:44:49.481Z,12.00
2023-01-17T01:47:37.627Z,12.50
2023-01-17T01:50:07.440Z,12.80
2023-01-17T01:52:35.114Z,13.40
2023-01-17T01:55:07.979Z,12.80
2023-01-17T01:57:38.294Z,12.80
2023-01-17T02:00:14.246Z,13.50
2023-01-17T02:02:41.229Z,12.60
2023-01-17T02:05:08.717Z,13.40
2023-01-17T02:07:39.241Z,12.50
2023-01-17T02:10:06.395Z,12.10
2023-01-17T02:12:33.357Z,13.80
2023-01-17T02:15:00.277Z,13.70
2023-01-17T02:17:53.600Z,13.20
2023-01-17T02:20:42.349Z,12.30
2023-01-17T02:23:24.789Z,12.60
2023-01-17T02:26:07.085Z,11.90
2023-01-17T02:28:47.033Z,12.80
2023-01-17T02:31:41.562Z,12.20
2023-01-17T02:34:21.526Z,13.00
2023-01-17T02:37:03.866Z,12.40
2023-01-17T02:39:35.108Z,12.00
2023-01-17T02:42:05.128Z,12.10
2023-01-17T02:44:42.009Z,12.70
2023-01-17T02:47:29.329Z,12.20
2023-01-17T02:49:59.135Z,11.80
2023-01-17T02:52:47.876Z,13.60
2023-01-17T02:55:16.918Z,11.90
2023-01-17T02:57:58.530Z,13.00
2023-01-17T03:00:38.826Z,12.70
2023-01-17T03:03:24.761Z,11.90
2023-01-17T03:05:55.032Z,13.00
2023-01-17T03:08:21.989Z,12.00
2023-01-17T03:10:49.038Z,12.30
2023-01-17T03:13:15.906Z,12.10
2023-01-17T03:15:42.868Z,12.60
2023-01-17T03:18:13.047Z,11.70
2023-01-17T03:20:40.029Z,12.40
2023-01-17T03:23:07.069Z,12.30
2023-01-17T03:25:34.138Z,12.90
2023-01-17T03:28:01.073Z,12.40
2023-01-17T03:30:28.063Z,13.20
2023-01-17T03:32:55.079Z,12.90
2023-01-17T03:35:21.972Z,11.90
2023-01-17T03:37:48.839Z,12.40
2023-01-17T03:40:15.707Z,12.80
2023-01-17T03:42:43.084Z,12.50
2023-01-17T03:45:10.620Z,11.90
2023-01-17T03:47:37.506Z,11.40
2023-01-17T03:50:05.156Z,10.30
2023-01-17T03:52:32.557Z,12.90
2023-01-17T03:54:59.803Z,11.10
2023-01-17T03:57:26.732Z,12.10
2023-01-17T03:59:53.691Z,12.10
2023-01-17T04:02:20.663Z,11.90
2023-01-17T04:04:47.507Z,12.50
2023-01-17T04:07:14.535Z,12.30
2023-01-17T04:09:41.493Z,11.90
2023-01-17T04:12:09.595Z,12.10
2023-01-17T04:14:36.506Z,12.20
2023-01-17T04:17:04.281Z,12.50
2023-01-17T04:19:31.849Z,13.30
2023-01-17T04:21:58.660Z,13.10
2023-01-17T04:24:25.509Z,13.40
2023-01-17T04:26:52.425Z,14.20
2023-01-17T04:29:19.451Z,13.70
2023-01-17T04:31:47.734Z,13.50
2023-01-17T04:34:15.129Z,12.40
2023-01-17T04:36:42.037Z,12.70
2023-01-17T04:39:08.891Z,13.40
2023-01-17T04:41:36.267Z,15.30
2023-01-17T04:44:03.300Z,14.30
2023-01-17T04:46:30.491Z,14.70
2023-01-17T04:48:57.507Z,15.10
2023-01-17T04:51:24.467Z,15.30
2023-01-17T04:53:51.435Z,14.30
2023-01-17T04:56:18.365Z,14.20
2023-01-17T04:58:45.318Z,15.10
2023-01-17T05:01:12.318Z,16.30
2023-01-17T05:03:39.319Z,15.30
2023-01-17T05:06:06.280Z,16.20
2023-01-17T05:08:33.178Z,16.10
2023-01-17T05:11:00.177Z,15.30
2023-01-17T05:13:27.233Z,16.30
2023-01-17T05:15:54.147Z,16.60
2023-01-17T05:18:20.990Z,15.90
2023-01-17T05:20:47.857Z,16.30
2023-01-17T05:23:14.869Z,17.50
2023-01-17T05:25:45.047Z,17.20
2023-01-17T05:28:12.484Z,17.80
2023-01-17T05:30:39.491Z,18.10
2023-01-17T05:33:06.520Z,17.60
2023-01-17T05:35:33.466Z,17.70
2023-01-17T05:38:00.356Z,17.70
2023-01-17T05:40:29.305Z,18.60
2023-01-17T05:42:58.257Z,19.10
2023-01-17T05:45:26.285Z,17.20
2023-01-17T05:47:54.070Z,18.00
2023-01-17T05:50:32.165Z,19.50
2023-01-17T05:53:06.930Z,19.00
2023-01-17T05:55:34.155Z,20.60
2023-01-17T05:58:01.407Z,19.80
2023-01-17T06:00:28.357Z,19.10
2023-01-17T06:02:56.583Z,20.70
2023-01-17T06:05:24.050Z,20.90
2023-01-17T06:07:51.151Z,21.40
2023-01-17T06:10:19.328Z,20.90
2023-01-17T06:12:46.895Z,20.70
2023-01-17T06:15:14.687Z,20.40
2023-01-17T06:17:41.722Z,20.10
2023-01-17T06:20:09.779Z,23.20
2023-01-17T06:22:37.069Z,21.60
2023-01-17T06:25:05.114Z,22.10
2023-01-17T06:27:32.073Z,21.90
2023-01-17T06:29:59.028Z,21.80
2023-01-17T06:32:25.988Z,22.30
2023-01-17T06:34:52.929Z,22.80
2023-01-17T06:37:19.762Z,21.20
2023-01-17T06:39:46.630Z,21.40
2023-01-17T06:42:13.537Z,22.20
2023-01-17T06:44:40.439Z,22.60
2023-01-17T06:47:07.392Z,21.60
2023-01-17T06:49:34.235Z,20.30
2023-01-17T06:52:01.185Z,23.00
2023-01-17T06:54:28.008Z,21.30
2023-01-17T06:56:54.868Z,22.20
2023-01-17T06:59:21.829Z,21.80
2023-01-17T07:01:48.827Z,20.20
2023-01-17T07:04:16.647Z,21.40
2023-01-17T07:06:43.575Z,21.10
2023-01-17T07:09:10.548Z,21.30
2023-01-17T07:11:37.481Z,20.00
2023-01-17T07:14:04.559Z,20.40
2023-01-17T07:16:31.529Z,20.90
2023-01-17T07:18:58.675Z,18.90
2023-01-17T07:21:25.623Z,21.10
2023-01-17T07:23:52.664Z,20.70
2023-01-17T07:26:19.585Z,27.40
2023-01-17T07:28:46.487Z,20.20
2023-01-17T07:31:13.421Z,23.80
2023-01-17T07:33:40.351Z,22.10
2023-01-17T07:36:07.990Z,20.40
2023-01-17T07:38:34.975Z,21.90
2023-01-17T07:41:02.040Z,21.10
2023-01-17T07:43:28.918Z,21.60
2023-01-17T07:45:55.933Z,21.70
2023-01-17T07:48:24.127Z,22.00
2023-01-17T07:50:52.558Z,23.00
2023-01-17T07:53:19.554Z,20.80
2023-01-17T07:55:46.402Z,21.50
2023-01-17T07:58:15.018Z,23.50
2023-01-17T08:00:44.436Z,22.70
2023-01-17T08:03:16.091Z,22.40
2023-01-17T08:05:43.629Z,21.00
2023-01-17T08:08:10.568Z,22.20
2023-01-17T08:10:37.648Z,21.70
2023-01-17T08:13:04.582Z,22.40
2023-01-17T08:15:31.538Z,23.70
2023-01-17T08:17:58.780Z,22.30
2023-01-17T08:20:27.999Z,21.80
2023-01-17T08:22:56.171Z,22.30
2023-01-17T08:25:24.029Z,22.60
2023-01-17T08:27:51.526Z,22.30
2023-01-17T08:30:18.774Z,22.50
2023-01-17T08:32:45.822Z,23.10
2023-01-17T08:35:12.864Z,23.50
2023-01-17T08:37:39.968Z,23.50
2023-01-17T08:40:08.033Z,23.10
2023-01-17T08:42:40.394Z,23.60
2023-01-17T08:45:08.443Z,24.40
2023-01-17T08:47:35.495Z,23.80
2023-01-17T08:50:02.660Z,23.40
2023-01-17T08:52:29.709Z,24.60
2023-01-17T08:54:56.705Z,22.80
2023-01-17T08:57:23.716Z,24.20
2023-01-17T08:59:50.864Z,23.70
2023-01-17T09:02:19.561Z,24.00
2023-01-17T09:04:50.187Z,23.40
2023-01-17T09:07:17.920Z,25.50
2023-01-17T09:09:45.015Z,24.20
2023-01-17T09:12:11.970Z,24.50
2023-01-17T09:14:38.786Z,25.50
2023-01-17T09:17:08.734Z,25.90
2023-01-17T09:19:35.764Z,25.80
2023-01-17T09:22:04.893Z,25.90
2023-01-17T09:24:32.924Z,25.10
2023-01-17T09:27:00.317Z,25.80
2023-01-17T09:29:27.711Z,25.20
2023-01-17T09:31:54.733Z,26.60
2023-01-17T09:34:23.843Z,27.30
2023-01-17T09:36:50.989Z,25.70
2023-01-17T09:39:18.042Z,23.60
2023-01-17T09:41:48.172Z,24.90
2023-01-17T09:44:36.523Z,25.10
2023-01-17T09:47:07.783Z,24.40
2023-01-17T09:49:42.849Z,23.10
2023-01-17T09:52:12.407Z,25.90
2023-01-17T09:54:40.991Z,25.10
2023-01-17T09:57:29.850Z,25.90
2023-01-17T10:00:04.289Z,26.00
2023-01-17T10:03:11.572Z,26.50
2023-01-17T10:05:53.963Z,26.20
2023-01-17T10:08:30.014Z,24.50
2023-01-17T10:11:14.272Z,27.00
2023-01-17T10:14:12.612Z,24.40
2023-01-17T10:16:55.198Z,25.70
2023-01-17T10:19:28.435Z,24.50
2023-01-17T10:21:55.467Z,24.60
2023-01-17T10:24:31.709Z,25.60
2023-01-17T10:26:58.613Z,25.10
2023-01-17T10:29:28.275Z,24.60
2023-01-17T10:32:01.969Z,24.20
2023-01-17T10:34:37.960Z,18.40
2023-01-17T10:37:40.661Z,24.70
2023-01-17T10:40:41.990Z,25.50
2023-01-17T10:43:34.055Z,23.80
2023-01-17T10:46:01.010Z,24.90
2023-01-17T10:48:42.837Z,24.60
2023-01-17T10:51:31.569Z,26.10
2023-01-17T10:54:18.691Z,24.80
2023-01-17T10:56:45.529Z,25.30
2023-01-17T10:59:32.085Z,24.90
2023-01-17T11:01:59.544Z,27.00
2023-01-17T11:04:36.658Z,26.60
2023-01-17T11:07:30.097Z,26.70
2023-01-17T11:09:58.197Z,26.80
2023-01-17T11:12:44.409Z,25.50
2023-01-17T11:15:11.338Z,27.70
2023-01-17T11:18:02.563Z,26.30
2023-01-17T11:20:37.279Z,25.90
2023-01-17T11:26:08.966Z,27.50
2023-01-17T11:28:37.163Z,26.30
2023-01-17T11:31:07.931Z,27.00
2023-01-17T11:33:45.950Z,26.90
2023-01-17T11:36:21.084Z,26.70
2023-01-17T11:39:17.241Z,29.70
2023-01-17T11:41:45.010Z,27.80
2023-01-17T11:44:32.408Z,26.80
2023-01-17T11:47:11.712Z,29.00
2023-01-17T11:49:42.928Z,27.40
2023-01-17T11:52:19.273Z,27.40
2023-01-17T11:54:47.362Z,27.50
2023-01-17T11:57:34.299Z,28.30
2023-01-17T12:00:14.731Z,28.30
2023-01-17T12:03:15.359Z,27.70
2023-01-17T12:05:42.391Z,28.80
2023-01-17T12:08:15.893Z,26.10
2023-01-17T12:10:52.506Z,27.30
2023-01-17T12:13:42.700Z,28.20
2023-01-17T12:16:31.828Z,26.80
2023-01-17T12:19:18.030Z,30.50
2023-01-17T12:22:18.586Z,27.00
2023-01-17T12:25:15.053Z,27.90
2023-01-17T12:28:11.490Z,27.00
2023-01-17T12:30:57.351Z,25.00
2023-01-17T12:33:34.927Z,27.00
2023-01-17T12:36:03.841Z,28.60
2023-01-17T12:38:38.776Z,27.50
2023-01-17T12:41:12.616Z,27.90
2023-01-17T12:43:40.330Z,27.10
2023-01-17T12:46:28.523Z,26.60
2023-01-17T12:49:15.985Z,28.20
2023-01-17T12:51:43.964Z,27.60
2023-01-17T12:54:40.140Z,25.50
2023-01-17T12:57:19.455Z,26.00
2023-01-17T12:59:52.501Z,26.10
2023-01-17T13:02:55.130Z,26.60
2023-01-17T13:05:41.915Z,25.80
2023-01-17T13:08:29.489Z,27.90
2023-01-17T13:11:02.720Z,25.60
2023-01-17T13:13:30.497Z,26.00
2023-01-17T13:15:58.482Z,27.70
2023-01-17T13:18:29.786Z,27.30
2023-01-17T13:21:12.633Z,25.70
2023-01-17T13:24:04.131Z,26.30
2023-01-17T13:26:56.561Z,26.50
2023-01-17T13:29:54.495Z,26.70
2023-01-17T13:32:39.631Z,25.30
2023-01-17T13:35:40.187Z,25.20
2023-01-17T13:38:19.515Z,25.40
2023-01-17T13:41:15.536Z,25.50
2023-01-17T13:44:06.857Z,24.70
2023-01-17T13:47:11.959Z,26.80
2023-01-17T13:49:38.913Z,26.00
2023-01-17T13:52:11.143Z,25.90
2023-01-17T13:54:51.155Z,26.60
2023-01-17T13:57:33.043Z,28.00
2023-01-17T14:00:21.674Z,26.20
2023-01-17T14:02:49.715Z,27.30
2023-01-17T14:05:21.400Z,26.30
2023-01-17T14:08:02.673Z,26.70
2023-01-17T14:10:41.057Z,29.00
2023-01-17T14:13:34.850Z,28.40
2023-01-17T14:16:02.917Z,28.60
2023-01-17T14:18:33.300Z,26.90
2023-01-17T14:21:11.496Z,26.60
2023-01-17T14:24:06.745Z,28.40
2023-01-17T14:26:39.204Z,28.40
2023-01-17T14:29:44.560Z,27.30
2023-01-17T14:32:13.572Z,28.00
2023-01-17T14:34:40.805Z,27.40
2023-01-17T14:37:38.679Z,29.30
2023-01-17T14:40:20.213Z,28.10
2023-01-17T14:42:48.381Z,28.60
2023-01-17T14:45:18.716Z,26.70
2023-01-17T14:47:46.157Z,29.90
2023-01-17T14:50:21.978Z,28.80
2023-01-17T14:52:49.619Z,27.60
2023-01-17T14:55:20.336Z,28.60
2023-01-17T14:57:54.845Z,27.90
2023-01-17T15:00:22.597Z,28.40
2023-01-17T15:02:50.798Z,29.40
2023-01-17T15:05:20.122Z,27.60
2023-01-17T15:07:49.861Z,28.40
2023-01-17T15:10:18.603Z,29.20
2023-01-17T15:12:48.367Z,28.10
2023-01-17T15:15:28.522Z,27.80
2023-01-17T15:18:14.030Z,29.00
2023-01-17T15:20:51.524Z,30.30
2023-01-17T15:23:22.431Z,27.90
2023-01-17T15:25:50.560Z,28.50
2023-01-17T15:28:17.533Z,29.00
2023-01-17T15:31:04.405Z,26.50
2023-01-17T15:33:35.762Z,25.20
2023-01-17T15:36:08.255Z,25.90
2023-01-17T15:38:39.171Z,25.90
2023-01-17T15:41:11.792Z,25.90
2023-01-17T15:43:39.155Z,26.60
2023-01-17T15:46:06.291Z,28.80
2023-01-17T15:48:44.534Z,26.40
2023-01-17T15:51:12.332Z,24.90
2023-01-17T15:53:41.596Z,25.50
2023-01-17T15:56:27.850Z,25.30
2023-01-17T15:58:59.962Z,25.70
2023-01-17T16:01:26.919Z,24.70
2023-01-17T16:03:54.814Z,24.40
2023-01-17T16:06:47.854Z,24.30
2023-01-17T16:09:24.649Z,24.50
2023-01-17T16:11:51.600Z,24.80
2023-01-17T16:14:18.783Z,24.20
2023-01-17T16:16:51.381Z,26.10
2023-01-17T16:19:18.252Z,25.50
2023-01-17T16:21:48.465Z,25.00
2023-01-17T16:24:15.571Z,25.50
2023-01-17T16:26:44.871Z,25.30
2023-01-17T16:29:11.884Z,25.20
2023-01-17T16:31:38.859Z,26.50
2023-01-17T16:34:11.797Z,25.90
2023-01-17T16:36:39.085Z,25.10
2023-01-17T16:39:06.119Z,25.80
2023-01-17T16:41:35.770Z,25.10
2023-01-17T16:44:03.319Z,25.00
2023-01-17T16:46:30.711Z,24.40
2023-01-17T16:49:02.251Z,24.00
2023-01-17T16:51:29.287Z,24.20
2023-01-17T16:53:56.296Z,24.10
2023-01-17T16:56:23.256Z,25.00
2023-01-17T16:58:51.356Z,24.90
2023-01-17T17:01:21.289Z,22.90
2023-01-17T17:03:49.181Z,22.90
2023-01-17T17:06:16.113Z,22.40
2023-01-17T17:08:43.456Z,22.50
2023-01-17T17:11:17.495Z,21.10
2023-01-17T17:13:45.803Z,22.30
2023-01-17T17:16:15.201Z,21.50
2023-01-17T17:18:42.805Z,23.10
2023-01-17T17:21:10.195Z,21.80
2023-01-17T17:23:37.354Z,21.60
2023-01-17T17:26:04.377Z,22.00
2023-01-17T17:28:31.392Z,22.20
2023-01-17T17:31:10.575Z,22.90
2023-01-17T17:33:38.960Z,21.30
2023-01-17T17:36:07.551Z,21.50
2023-01-17T17:38:35.181Z,21.20
2023-01-17T17:41:09.859Z,23.80
2023-01-17T17:43:38.571Z,20.70
2023-01-17T17:46:05.697Z,21.40
2023-01-17T17:48:32.651Z,21.10
2023-01-17T17:50:59.886Z,21.30
2023-01-17T17:53:27.612Z,21.60
2023-01-17T17:55:54.729Z,19.70
2023-01-17T17:58:22.025Z,20.40
2023-01-17T18:00:49.477Z,20.60
2023-01-17T18:03:16.498Z,21.70
2023-01-17T18:05:44.247Z,21.90
2023-01-17T18:08:11.100Z,22.00
2023-01-17T18:10:39.667Z,22.60
2023-01-17T18:13:06.813Z,19.50
2023-01-17T18:15:33.725Z,22.50
2023-01-17T18:18:00.575Z,20.30
2023-01-17T18:20:27.600Z,21.20
2023-01-17T18:22:54.522Z,21.40
2023-01-17T18:25:21.497Z,20.40
2023-01-17T18:27:48.564Z,20.10
2023-01-17T18:30:16.145Z,20.60
2023-01-17T18:32:43.177Z,20.40
2023-01-17T18:35:10.164Z,21.20
2023-01-17T18:37:37.186Z,20.50
2023-01-17T18:40:04.637Z,19.70
2023-01-17T18:42:31.562Z,19.50
2023-01-17T18:44:58.549Z,20.50
2023-01-17T18:47:25.433Z,21.30
2023-01-17T18:49:58.015Z,21.60
2023-01-17T18:52:30.499Z,21.10
2023-01-17T18:54:57.880Z,21.10
2023-01-17T18:57:24.990Z,21.90
2023-01-17T18:59:52.132Z,21.70
2023-01-17T19:02:20.160Z,20.80
2023-01-17T19:04:48.549Z,21.50
2023-01-17T19:07:15.903Z,21.80
2023-01-17T19:09:44.464Z,20.60
2023-01-17T19:12:11.447Z,20.30
2023-01-17T19:14:38.342Z,20.50
2023-01-17T19:17:05.398Z,21.10
2023-01-17T19:19:32.284Z,20.50
2023-01-17T19:21:59.235Z,20.70
2023-01-17T19:24:26.481Z,22.80
2023-01-17T19:26:54.108Z,20.40
2023-01-17T19:29:22.122Z,20.10
2023-01-17T19:31:49.016Z,21.70
2023-01-17T19:34:19.968Z,20.30
2023-01-17T19:36:49.565Z,20.40
2023-01-17T19:39:16.624Z,19.30
2023-01-17T19:41:44.776Z,19.50
2023-01-17T19:44:12.782Z,21.30
2023-01-17T19:46:39.995Z,18.70
2023-01-17T19:49:07.744Z,20.60
2023-01-17T19:51:35.136Z,19.80
2023-01-17T19:54:04.317Z,20.00
2023-01-17T19:56:31.568Z,18.70
2023-01-17T19:59:01.815Z,20.30
2023-01-17T20:01:31.363Z,20.10
2023-01-17T20:03:58.726Z,19.70
2023-01-17T20:06:31.038Z,19.90
2023-01-17T20:08:58.886Z,19.30
2023-01-17T20:11:28.120Z,19.70
2023-01-17T20:13:56.938Z,18.70
2023-01-17T20:16:24.885Z,20.40
2023-01-17T20:18:52.329Z,19.60
2023-01-17T20:21:22.569Z,19.20
2023-01-17T20:23:50.448Z,19.40
2023-01-17T20:26:19.726Z,18.70
2023-01-17T20:28:47.808Z,18.70
2023-01-17T20:31:16.750Z,18.90
2023-01-17T20:33:45.224Z,19.40
2023-01-17T20:36:15.191Z,19.20
2023-01-17T20:38:45.535Z,17.60
2023-01-17T20:41:15.493Z,18.90
2023-01-17T20:43:43.399Z,19.30
2023-01-17T20:46:10.732Z,19.90
2023-01-17T20:48:39.325Z,19.60
2023-01-17T20:51:07.789Z,19.10
2023-01-17T20:53:35.144Z,19.10
2023-01-17T20:56:01.971Z,19.60
2023-01-17T20:58:29.137Z,18.70
2023-01-17T21:00:56.487Z,18.00
2023-01-17T21:03:24.201Z,18.30
2023-01-17T21:05:51.560Z,18.90
2023-01-17T21:08:18.762Z,19.60
2023-01-17T21:10:49.126Z,19.90
2023-01-17T21:13:15.993Z,19.30
2023-01-17T21:15:44.228Z,19.20
2023-01-17T21:18:11.197Z,18.60
2023-01-17T21:20:38.121Z,18.90
2023-01-17T21:23:08.655Z,19.00
2023-01-17T21:25:36.323Z,20.80
2023-01-17T21:28:03.478Z,20.00
2023-01-17T21:30:30.325Z,19.60
2023-01-17T21:32:57.373Z,18.10
2023-01-17T21:35:24.312Z,18.60
2023-01-17T21:37:51.161Z,18.40
2023-01-17T21:40:18.777Z,20.40
2023-01-17T21:42:45.671Z,19.90
2023-01-17T21:45:12.629Z,18.80
2023-01-17T21:47:42.305Z,19.80
2023-01-17T21:50:10.145Z,19.80
2023-01-17T21:52:37.383Z,18.80
2023-01-17T21:55:23.078Z,19.60
2023-01-17T21:58:08.635Z,18.70
2023-01-17T22:00:35.581Z,18.80
2023-01-17T22:03:02.539Z,19.30
2023-01-17T22:05:29.486Z,20.10
2023-01-17T22:08:11.572Z,19.30
2023-01-17T22:10:47.937Z,19.20
2023-01-17T22:13:18.360Z,19.10
2023-01-17T22:15:45.381Z,20.40
2023-01-17T22:18:15.911Z,19.50
2023-01-17T22:20:42.793Z,20.20
2023-01-17T22:23:10.085Z,19.90
2023-01-17T22:25:36.967Z,18.50
2023-01-17T22:28:04.188Z,19.80
2023-01-17T22:30:31.132Z,19.80
2023-01-17T22:32:58.801Z,18.30
2023-01-17T22:35:25.920Z,19.50
2023-01-17T22:37:53.038Z,19.10
2023-01-17T22:40:20.560Z,17.70
2023-01-17T22:42:47.511Z,19.70
2023-01-17T22:45:14.675Z,19.50
2023-01-17T22:47:41.613Z,18.40
2023-01-17T22:50:09.291Z,19.40
2023-01-17T22:52:36.239Z,18.50
2023-01-17T22:55:03.281Z,18.20
2023-01-17T22:57:30.174Z,19.20
2023-01-17T22:59:57.190Z,19.30
2023-01-17T23:02:24.207Z,19.20
2023-01-17T23:04:51.416Z,19.80
2023-01-17T23:07:18.259Z,18.90
2023-01-17T23:09:45.203Z,17.90
2023-01-17T23:12:12.166Z,19.10
2023-01-17T23:14:57.823Z,18.50
2023-01-17T23:17:43.615Z,18.20
2023-01-17T23:20:11.239Z,19.50
2023-01-17T23:22:38.122Z,18.20
2023-01-17T23:25:11.741Z,19.20
2023-01-17T23:28:04.777Z,19.40
2023-01-17T23:30:35.608Z,20.00
2023-01-17T23:33:04.607Z,18.80
2023-01-17T23:35:34.223Z,18.70
2023-01-17T23:38:19.869Z,19.20
2023-01-17T23:41:06.649Z,18.60
2023-01-17T23:43:33.955Z,19.00
2023-01-17T23:46:00.886Z,19.00
2023-01-17T23:48:27.976Z,19.20
2023-01-17T23:50:59.424Z,19.70
2023-01-17T23:53:26.673Z,21.20
2023-01-17T23:55:55.532Z,20.40
2023-01-17T23:58:24.183Z,20.30
